tititudorancea.com
Station Historical Data
Daily Summary for January 14, 2018 Units:  Metric    English   Both
« Previous Day
Next Day »
Daily Weekly Monthly Yearly Custom
  High: Low: Average:
Temperature: -17.8 °C 8.8 °C 13.7 °C
Dew Point: -17.8 °C 3.3 °C 6.5 °C
Humidity: Humidity % 32 % 65 %
Wind Speed: 0 km/h 3.5 km/h 12.4 km/h
Wind Gust: 0 km/h - -
Wind:- - SSW
Pressure: 0 hPa 1012.1 hPa -
Precipitation: 0 mm    
Historical Graphs
 
 
Ararat weather Find more about Weather in Ararat, AU


 



 


Tabular Data for January 14, 2018
Time Temperature Dew Point Pressure Wind Wind Speed Wind Gust Humidity Rainfall Rate (Hourly)
-17.8 °C -17.8 °C 0 hPa Calm     Humidity % 0 mm
00:03 10.5 °C 7.6 °C 1012.1 hPa SW 13.7 km/h 16.7 km/h 82 % 0 mm
00:23 10.6 °C 7.4 °C 1012.4 hPa SSW 15 km/h 24.1 km/h 81 % 0 mm
00:29 10.5 °C 7.4 °C 1012.4 hPa SSW 9.5 km/h 18.5 km/h 81 % 0 mm
00:38 10.4 °C 7.4 °C 1012.4 hPa SW 10.6 km/h 14.8 km/h 82 % 0 mm
00:57 10.3 °C 7.7 °C 1012.8 hPa SSW 8.2 km/h 13 km/h 84 % 0 mm
01:08 10.3 °C 7.7 °C 1012.8 hPa SW 3.5 km/h 6.4 km/h 84 % 0 mm
01:15 10.2 °C 7.8 °C 1012.8 hPa SW 11.3 km/h 16.7 km/h 85 % 0 mm
01:21 10.1 °C 7.7 °C 1012.8 hPa SW 9.7 km/h 14.8 km/h 85 % 0 mm
01:30 9.9 °C 7.7 °C 1012.8 hPa SW 9.7 km/h 13 km/h 86 % 0 mm
01:41 9.9 °C 7.7 °C 1012.8 hPa SSW 7.4 km/h 11.1 km/h 86 % 0 mm
01:54 9.9 °C 7.7 °C 1012.8 hPa SSW 12.9 km/h 22.2 km/h 86 % 0 mm
02:03 9.8 °C 7.6 °C 1012.8 hPa SSW 15.8 km/h 20.4 km/h 86 % 0 mm
02:18 9.7 °C 7.5 °C 1012.8 hPa SSW 14 km/h 20.4 km/h 86 % 0 mm
02:25 9.7 °C 7.4 °C 1012.8 hPa SSW 5.5 km/h 13 km/h 86 % 0 mm
02:30 9.7 °C 7.4 °C 1012.8 hPa SSW 7.6 km/h 12.9 km/h 86 % 0 mm
02:36 9.7 °C 7.4 °C 1013.1 hPa North 6.8 km/h 13 km/h 86 % 0 mm
03:11 9.7 °C 7.6 °C 1013.1 hPa SSW 11.3 km/h 14.5 km/h 87 % 0 mm
03:28 9.6 °C 7.7 °C 1013.1 hPa SSW 8.2 km/h 18.5 km/h 88 % 0 mm
03:49 9.6 °C 7.7 °C 1013.1 hPa SSW 10.1 km/h 16.1 km/h 88 % 0 mm
03:56 9.6 °C 7.7 °C 1013.1 hPa SSW 10.8 km/h 16.1 km/h 88 % 0 mm
04:04 9.5 °C 7.6 °C 1013.1 hPa SSW 10 km/h 13 km/h 88 % 0 mm
04:10 9.4 °C 7.5 °C 1013.1 hPa SSW 9.5 km/h 13 km/h 88 % 0 mm
04:19 9.3 °C 7.4 °C 1013.1 hPa North 9.3 km/h 11.1 km/h 88 % 0 mm
04:29 9.2 °C 7.5 °C 1013.1 hPa North 10.6 km/h 18.5 km/h 89 % 0 mm
04:36 9.2 °C 7.4 °C 1013.4 hPa SSW 8 km/h 13 km/h 89 % 0 mm
04:46 9.1 °C 7.4 °C 1013.4 hPa SSW 7.1 km/h 13 km/h 89 % 0 mm
04:59 9.1 °C 7.4 °C 1013.4 hPa SSW 5.3 km/h 7.4 km/h 89 % 0 mm
05:07 9.1 °C 7.4 °C 1013.8 hPa SSW 10 km/h 11.3 km/h 89 % 0 mm
05:22 9.1 °C 7.3 °C 1013.8 hPa SSW 12.9 km/h 18.5 km/h 89 % 0 mm
05:32 9 °C 7.3 °C 1014.1 hPa SSW 8.2 km/h 11.3 km/h 89 % 0 mm
05:46 9 °C 7.3 °C 1014.4 hPa North 8.9 km/h 12.9 km/h 89 % 0 mm
05:56 8.9 °C 7.4 °C 1014.4 hPa SSW 9 km/h 16.7 km/h 90 % 0 mm
06:03 8.9 °C 7.4 °C 1014.8 hPa SSW 6.6 km/h 9.3 km/h 90 % 0 mm
06:11 9 °C 7.4 °C 1014.8 hPa SSW 7.4 km/h 11.1 km/h 90 % 0 mm
06:19 9 °C 7.4 °C 1015.1 hPa SSW 5.5 km/h 8 km/h 90 % 0 mm
06:26 8.9 °C 7.4 °C 1015.1 hPa North 5 km/h 8 km/h 90 % 0 mm
06:32 8.8 °C 7.3 °C 1015.1 hPa SSW 4.5 km/h 7.4 km/h 90 % 0 mm
06:37 8.8 °C 7.2 °C 1015.1 hPa North 9 km/h 14.8 km/h 90 % 0 mm
06:46 8.8 °C 7.2 °C 1015.5 hPa North 5.3 km/h 7.4 km/h 90 % 0 mm
07:10 9.2 °C 7.7 °C 1015.8 hPa SSW 10.6 km/h 14.8 km/h 90 % 0 mm
07:25 9.7 °C 7.8 °C 1015.8 hPa SSW 5.8 km/h 9.3 km/h 88 % 0 mm
07:34 10 °C 7.9 °C 1016.1 hPa SSW 8.4 km/h 16.7 km/h 87 % 0 mm
07:48 10.4 °C 8.2 °C 1016.5 hPa North 4 km/h 7.4 km/h 86 % 0 mm
07:54 10.6 °C 8.2 °C 1016.5 hPa South 13.8 km/h 16.1 km/h 85 % 0 mm
08:00 10.8 °C 8.2 °C 1016.8 hPa SSW 14.3 km/h 20.4 km/h 84 % 0 mm
08:06 11 °C 8.4 °C 1016.8 hPa South 8 km/h 18.5 km/h 84 % 0 mm
08:14 11.3 °C 8.5 °C 1016.8 hPa South 8.7 km/h 16.7 km/h 83 % 0 mm
08:23 11.7 °C 8.7 °C 1017.2 hPa SSE 10 km/h 11.3 km/h 82 % 0 mm
08:30 11.9 °C 8.7 °C 1017.5 hPa South 9.5 km/h 16.7 km/h 81 % 0 mm
08:43 12.2 °C 8.5 °C 1017.5 hPa South 20.4 km/h 20.4 km/h 78 % 0 mm
09:08 13 °C 9.1 °C 1017.8 hPa SSE 9.5 km/h 24.1 km/h 77 % 0 mm
09:33 14.1 °C 9.1 °C 1018.2 hPa SSE 12.4 km/h 18.5 km/h 72 % 0 mm
09:40 14.4 °C 8.6 °C 1018.2 hPa South 11.6 km/h 14.8 km/h 68 % 0 mm
09:49 13.9 °C 8.3 °C 1018.2 hPa South 18.7 km/h 19.3 km/h 69 % 0 mm
10:14 15.2 °C 8.2 °C 1018.5 hPa North 9.7 km/h 29.6 km/h 63 % 0 mm
10:21 14.7 °C 7.7 °C 1018.5 hPa South 16.3 km/h 25.7 km/h 63 % 0 mm
10:33 14.9 °C 7.9 °C 1018.5 hPa SSE 15.1 km/h 22.2 km/h 63 % 0 mm
10:40 15.3 °C 8.1 °C 1018.5 hPa SE 13.5 km/h 22.2 km/h 62 % 0 mm
11:04 15.9 °C 7.9 °C 1018.5 hPa SSW 21.4 km/h 27.8 km/h 59 % 0 mm
11:24 16.1 °C 7.3 °C 1018.5 hPa SSW 33.3 km/h 33.3 km/h 56 % 0 mm
11:39 17.1 °C 6.9 °C 1018.5 hPa South 13.5 km/h 16.7 km/h 51 % 0 mm
11:50 17.9 °C 7.9 °C 1018.8 hPa South 11.3 km/h 29.6 km/h 52 % 0 mm
11:59 16.5 °C 6.6 °C 1018.8 hPa SSW 15.9 km/h 29.6 km/h 52 % 0 mm
12:05 16.5 °C 6.6 °C 1018.8 hPa SSW 20.3 km/h 31.5 km/h 52 % 0 mm
12:18 17.4 °C 6.9 °C 1018.5 hPa South 9 km/h 18.5 km/h 50 % 0 mm
12:30 17.9 °C 6.4 °C 1018.5 hPa SSW 11.4 km/h 20.9 km/h 47 % 0 mm
12:36 17.9 °C 6.8 °C 1018.5 hPa SSW 13.8 km/h 20.4 km/h 48 % 0 mm
12:46 18.1 °C 6.3 °C 1018.5 hPa SE 12.2 km/h 19.3 km/h 46 % 0 mm
13:04 18.7 °C 6.6 °C 1018.2 hPa SSE 12.7 km/h 18.5 km/h 45 % 0 mm
13:13 18.7 °C 5.9 °C 1018.2 hPa South 17.7 km/h 35.2 km/h 43 % 0 mm
13:19 18.8 °C 6.3 °C 1018.2 hPa South 14.8 km/h 22.2 km/h 44 % 0 mm
13:29 18.9 °C 6.1 °C 1018.2 hPa South 21.7 km/h 31.5 km/h 43 % 0 mm
13:41 19.2 °C 5.3 °C 1018.2 hPa SSE 19 km/h 25.9 km/h 40 % 0 mm
14:04 19.7 °C 5.7 °C 1017.8 hPa North 12.2 km/h 20.9 km/h 40 % 0 mm
14:10 19.3 °C 4.6 °C 1017.8 hPa South 24.6 km/h 31.5 km/h 38 % 0 mm
14:19 19.2 °C 3.8 °C 1017.8 hPa North 15.4 km/h 24.1 km/h 36 % 0 mm
14:36 19.8 °C 4.3 °C 1017.8 hPa South 16.9 km/h 29.6 km/h 36 % 0 mm
14:50 20.2 °C 4.2 °C 1017.5 hPa South 14.8 km/h 29 km/h 35 % 0 mm
14:55 20.2 °C 3.8 °C 1017.5 hPa SW 16.3 km/h 24.1 km/h 34 % 0 mm
15:04 20.4 °C 3.6 °C 1017.5 hPa North 22.9 km/h 35.2 km/h 33 % 0 mm
15:13 20.3 °C 3.9 °C 1017.5 hPa SSW 16.3 km/h 24.1 km/h 34 % 0 mm
15:19 20.6 °C 3.3 °C 1017.8 hPa South 16.6 km/h 24.1 km/h 32 % 0 mm
15:33 20.3 °C 3.4 °C 1017.5 hPa South 18.7 km/h 31.5 km/h 33 % 0 mm
15:38 20.4 °C 4.1 °C 1017.8 hPa SSW 19.3 km/h 27.8 km/h 34 % 0 mm
15:46 20.6 °C 4.6 °C 1017.8 hPa SSW 21.7 km/h 31.5 km/h 35 % 0 mm
15:58 20.6 °C 3.3 °C 1017.8 hPa SSE 22 km/h 29.6 km/h 32 % 0 mm
17:04 21 °C 3.7 °C 1017.5 hPa South 15.6 km/h 24.1 km/h 32 % 0 mm
17:12 20.9 °C 4.4 °C 1017.5 hPa South 15.8 km/h 22.5 km/h 34 % 0 mm
17:23 20.9 °C 4.4 °C 1017.8 hPa South 17.9 km/h 24.1 km/h 34 % 0 mm
17:45 20.4 °C 3.6 °C 1017.8 hPa SSW 21.7 km/h 27.8 km/h 33 % 0 mm
17:58 20.3 °C 3.5 °C 1017.5 hPa South 17.9 km/h 25.9 km/h 33 % 0 mm
18:10 20.3 °C 3.9 °C 1017.5 hPa SSW 18.5 km/h 25.9 km/h 34 % 0 mm
18:29 20.3 °C 4.3 °C 1017.8 hPa SSE 13.2 km/h 22.2 km/h 35 % 0 mm
18:37 20.3 °C 4.7 °C 1017.8 hPa South 12.1 km/h 24.1 km/h 36 % 0 mm
19:12 19.5 °C 4.8 °C 1018.2 hPa South 18.3 km/h 29 km/h 38 % 0 mm
19:41 18.8 °C 4.6 °C 1018.2 hPa South 10.3 km/h 18.5 km/h 39 % 0 mm
19:55 18.5 °C 5 °C 1018.5 hPa South 17.9 km/h 24.1 km/h 41 % 0 mm
20:23 17.6 °C 5.5 °C 1018.8 hPa South 15.8 km/h 20.9 km/h 45 % 0 mm
20:49 16.6 °C 6.4 °C 1018.8 hPa South 12.6 km/h 18.5 km/h 51 % 0 mm
21:12 15.8 °C 6.8 °C 1018.8 hPa South 10.1 km/h 16.7 km/h 55 % 0 mm
21:31 15.1 °C 6.8 °C 1019.2 hPa South 6.8 km/h 11.3 km/h 58 % 0 mm
21:50 14.5 °C 6.8 °C 1019.5 hPa SSW 11.7 km/h 16.7 km/h 60 % 0 mm
22:11 13.9 °C 6.8 °C 1019.5 hPa South 9.7 km/h 13 km/h 62 % 0 mm
22:25 13.6 °C 7.1 °C 1019.5 hPa South 10.9 km/h 14.8 km/h 65 % 0 mm
22:35 13.3 °C 7.1 °C 1019.5 hPa South 10.1 km/h 16.7 km/h 66 % 0 mm
23:00 12.8 °C 7.3 °C 1019.5 hPa South 12.6 km/h 16.7 km/h 69 % 0 mm
23:06 12.8 °C 7.4 °C 1019.5 hPa South 6 km/h 7.4 km/h 70 % 0 mm
23:20 12.6 °C 7.5 °C 1019.5 hPa South 7.2 km/h 13 km/h 71 % 0 mm
23:26 12.5 °C 7.6 °C 1019.5 hPa South 7.1 km/h 9.3 km/h 72 % 0 mm
23:58 12 °C 7.5 °C 1019.5 hPa South 7.4 km/h 11.1 km/h 74 % 0 mm
Ararat Weather
Compliments of Weather Underground - 1.25 mb
Click here to send mail.


ABOUT

Live weather data from Ararat, Victoria, Australia, 3377
Data uploaded from Cumulus every 5 minutes to Weather Underground.
This site then downloads the raw data for formatting and display.
Metric and imperial data can be displayed. Graphs and historical data available.
Includes Sun and Moon times and rain image live from BOM.

Check out Ararat Weather on Facebook, Twitter and Google +

Help support ongoing costs by checking out the ads





Follow @AraratWeather